createdAt,value
2018-06-28T00:01:59.906Z,2.30
2018-06-28T00:04:30.669Z,2.53
2018-06-28T00:07:01.437Z,2.33
2018-06-28T00:09:31.617Z,2.20
2018-06-28T00:12:02.772Z,2.20
2018-06-28T00:14:33.957Z,2.33
2018-06-28T00:17:04.715Z,2.50
2018-06-28T00:19:35.743Z,2.63
2018-06-28T00:22:06.870Z,2.50
2018-06-28T00:24:37.565Z,2.60
2018-06-28T00:27:08.686Z,2.57
2018-06-28T00:29:39.414Z,2.30
2018-06-28T00:32:10.106Z,2.40
2018-06-28T00:34:40.801Z,2.50
2018-06-28T00:37:11.480Z,2.43
2018-06-28T00:39:42.155Z,2.77
2018-06-28T00:42:12.852Z,2.80
2018-06-28T00:44:43.576Z,2.77
2018-06-28T00:47:14.249Z,2.63
2018-06-28T00:49:45.338Z,2.70
2018-06-28T00:52:17.105Z,2.73
2018-06-28T00:54:49.645Z,2.67
2018-06-28T00:57:19.758Z,2.60
2018-06-28T00:59:50.414Z,2.60
2018-06-28T01:02:21.191Z,2.60
2018-06-28T01:04:52.261Z,2.53
2018-06-28T01:07:23.423Z,2.63
2018-06-28T01:09:54.222Z,2.57
2018-06-28T01:12:24.951Z,3.00
2018-06-28T01:14:54.945Z,2.83
2018-06-28T01:17:25.574Z,2.90
2018-06-28T01:19:56.234Z,2.60
2018-06-28T01:22:27.017Z,2.70
2018-06-28T01:24:57.077Z,2.90
2018-06-28T01:27:27.758Z,2.87
2018-06-28T01:29:58.476Z,2.47
2018-06-28T01:32:29.566Z,2.37
2018-06-28T01:34:59.891Z,2.77
2018-06-28T01:37:30.999Z,2.80
2018-06-28T01:40:01.719Z,3.07
2018-06-28T01:42:43.684Z,2.70
2018-06-28T01:45:14.761Z,3.00
2018-06-28T01:47:45.490Z,2.90
2018-06-28T01:50:16.202Z,3.00
2018-06-28T01:52:47.177Z,3.00
2018-06-28T01:55:18.239Z,3.03
2018-06-28T01:57:49.095Z,3.10
2018-06-28T02:00:19.812Z,3.00
2018-06-28T02:02:50.570Z,3.10
2018-06-28T02:05:21.629Z,3.00
2018-06-28T02:07:52.661Z,3.40
2018-06-28T02:10:23.610Z,3.50
2018-06-28T02:12:53.640Z,3.23
2018-06-28T02:15:24.297Z,2.90
2018-06-28T02:17:55.033Z,3.10
2018-06-28T02:20:25.721Z,3.07
2018-06-28T02:22:56.598Z,3.20
2018-06-28T02:25:27.581Z,3.00
2018-06-28T02:27:58.278Z,3.30
2018-06-28T02:30:28.986Z,2.80
2018-06-28T02:32:59.650Z,3.17
2018-06-28T02:35:30.385Z,2.93
2018-06-28T02:38:01.176Z,3.00
2018-06-28T02:40:32.212Z,3.10
2018-06-28T02:43:03.010Z,3.07
2018-06-28T02:45:33.697Z,2.70
2018-06-28T02:48:04.640Z,3.30
2018-06-28T02:50:35.349Z,2.87
2018-06-28T02:53:06.014Z,3.20
2018-06-28T02:55:36.036Z,3.30
2018-06-28T02:58:07.875Z,3.40
2018-06-28T03:00:38.597Z,3.30
2018-06-28T03:03:09.288Z,3.13
2018-06-28T03:05:39.974Z,3.10
2018-06-28T03:08:10.674Z,3.27
2018-06-28T03:10:41.014Z,2.80
2018-06-28T03:13:11.610Z,3.40
2018-06-28T03:15:42.591Z,3.73
2018-06-28T03:18:12.617Z,3.10
2018-06-28T03:20:43.329Z,3.40
2018-06-28T03:23:13.964Z,3.30
2018-06-28T03:25:45.034Z,3.07
2018-06-28T03:28:15.685Z,3.33
2018-06-28T03:30:46.537Z,3.40
2018-06-28T03:33:17.164Z,3.23
2018-06-28T03:35:47.845Z,3.07
2018-06-28T03:38:18.623Z,2.80
2018-06-28T03:40:49.277Z,3.07
2018-06-28T03:43:20.223Z,3.17
2018-06-28T03:45:50.987Z,3.30
2018-06-28T03:48:21.697Z,3.40
2018-06-28T03:50:52.433Z,3.10
2018-06-28T03:53:23.098Z,3.20
2018-06-28T03:55:53.810Z,3.37
2018-06-28T03:58:24.498Z,3.20
2018-06-28T04:00:54.520Z,3.30
2018-06-28T04:03:25.133Z,3.37
2018-06-28T04:05:56.081Z,3.37
2018-06-28T04:08:27.089Z,3.40
2018-06-28T04:10:58.217Z,3.07
2018-06-28T04:13:28.975Z,3.40
2018-06-28T04:15:59.642Z,3.80
2018-06-28T04:18:30.342Z,3.00
2018-06-28T04:21:01.202Z,3.13
2018-06-28T04:23:31.914Z,3.47
2018-06-28T04:26:02.700Z,3.30
2018-06-28T04:28:33.682Z,3.60
2018-06-28T04:31:05.275Z,3.00
2018-06-28T04:33:35.930Z,3.33
2018-06-28T04:36:06.972Z,3.40
2018-06-28T04:38:37.670Z,3.40
2018-06-28T04:41:08.449Z,3.10
2018-06-28T04:43:39.097Z,3.13
2018-06-28T04:46:10.138Z,3.37
2018-06-28T04:48:40.924Z,3.43
2018-06-28T04:51:11.579Z,2.97
2018-06-28T04:53:41.627Z,2.60
2018-06-28T04:56:12.273Z,3.10
2018-06-28T04:58:42.961Z,2.80
2018-06-28T05:01:13.749Z,3.03
2018-06-28T05:03:44.478Z,3.07
2018-06-28T05:06:15.359Z,3.20
2018-06-28T05:08:46.146Z,3.10
2018-06-28T05:11:17.079Z,2.83
2018-06-28T05:13:47.844Z,3.33
2018-06-28T05:16:18.648Z,3.47
2018-06-28T05:18:49.451Z,2.77
2018-06-28T05:21:20.331Z,3.20
2018-06-28T05:23:51.125Z,3.07
2018-06-28T05:26:21.916Z,3.03
2018-06-28T05:28:52.723Z,3.20
2018-06-28T05:31:23.796Z,3.13
2018-06-28T05:33:54.834Z,3.07
2018-06-28T05:36:25.644Z,2.80
2018-06-28T05:38:56.412Z,3.33
2018-06-28T05:41:27.192Z,3.00
2018-06-28T05:43:57.232Z,3.10
2018-06-28T05:46:28.340Z,3.10
2018-06-28T05:48:59.174Z,3.10
2018-06-28T05:51:30.196Z,2.90
2018-06-28T05:54:01.202Z,2.93
2018-06-28T05:56:32.218Z,3.00
2018-06-28T05:59:03.493Z,2.97
2018-06-28T06:01:34.832Z,3.03
2018-06-28T06:04:05.921Z,2.67
2018-06-28T06:06:36.962Z,3.30
2018-06-28T06:09:10.136Z,3.00
2018-06-28T06:11:41.216Z,3.03
2018-06-28T06:14:12.203Z,2.73
2018-06-28T06:16:43.817Z,2.70
2018-06-28T06:19:15.026Z,2.73
2018-06-28T06:21:45.963Z,2.90
2018-06-28T06:24:16.985Z,2.90
2018-06-28T06:26:48.069Z,2.47
2018-06-28T06:29:20.735Z,2.80
2018-06-28T06:31:52.040Z,2.50
2018-06-28T06:34:23.024Z,2.40
2018-06-28T06:36:55.012Z,2.10
2018-06-28T06:39:26.436Z,2.60
2018-06-28T06:41:57.466Z,2.17
2018-06-28T06:44:28.407Z,2.37
2018-06-28T06:47:00.346Z,2.50
2018-06-28T06:49:31.604Z,2.40
2018-06-28T06:52:02.725Z,2.50
2018-06-28T06:54:33.897Z,2.20
2018-06-28T06:57:04.943Z,2.30
2018-06-28T06:59:36.758Z,2.20
2018-06-28T07:02:08.150Z,2.07
2018-06-28T07:04:39.416Z,2.30
2018-06-28T07:07:10.497Z,2.40
2018-06-28T07:09:44.220Z,2.10
2018-06-28T07:12:15.185Z,2.37
2018-06-28T07:14:46.004Z,2.50
2018-06-28T07:17:16.749Z,2.30
2018-06-28T07:19:47.489Z,2.20
2018-06-28T07:22:18.689Z,2.40
2018-06-28T07:24:49.530Z,2.00
2018-06-28T07:27:20.278Z,2.20
2018-06-28T07:29:51.177Z,2.40
2018-06-28T07:32:22.173Z,2.20
2018-06-28T07:34:52.966Z,2.43
2018-06-28T07:37:23.021Z,2.27
2018-06-28T07:39:53.754Z,2.10
2018-06-28T07:42:24.549Z,2.10
2018-06-28T07:44:54.704Z,2.50
2018-06-28T07:47:25.782Z,2.23
2018-06-28T07:49:57.182Z,2.20
2018-06-28T07:52:27.998Z,1.90
2018-06-28T07:54:59.209Z,2.17
2018-06-28T07:57:29.984Z,2.00
2018-06-28T08:00:00.714Z,2.00
2018-06-28T08:02:31.545Z,2.17
2018-06-28T08:05:02.256Z,1.90
2018-06-28T08:07:33.034Z,2.17
2018-06-28T08:10:03.861Z,2.00
2018-06-28T08:12:34.596Z,1.93
2018-06-28T08:15:05.522Z,2.20
2018-06-28T08:17:36.342Z,1.97
2018-06-28T08:20:07.976Z,1.90
2018-06-28T08:22:38.726Z,2.00
2018-06-28T08:25:09.430Z,2.10
2018-06-28T08:27:40.256Z,2.10
2018-06-28T08:30:10.439Z,1.93
2018-06-28T08:32:41.322Z,2.03
2018-06-28T08:35:12.059Z,2.10
2018-06-28T08:37:42.835Z,2.00
2018-06-28T08:40:13.685Z,2.03
2018-06-28T08:42:44.425Z,2.00
2018-06-28T08:45:15.499Z,1.90
2018-06-28T08:47:46.454Z,1.90
2018-06-28T08:50:17.178Z,1.97
2018-06-28T08:52:47.934Z,2.00
2018-06-28T08:55:18.781Z,1.90
2018-06-28T08:57:49.633Z,1.70
2018-06-28T09:00:20.425Z,1.70
2018-06-28T09:02:51.193Z,1.60
2018-06-28T09:05:22.388Z,1.80
2018-06-28T09:07:53.087Z,1.83
2018-06-28T09:10:23.897Z,2.30
2018-06-28T09:12:54.704Z,1.57
2018-06-28T09:15:25.594Z,1.60
2018-06-28T09:17:55.692Z,1.50
2018-06-28T09:20:26.448Z,1.47
2018-06-28T09:22:57.235Z,1.67
2018-06-28T09:25:28.167Z,1.60
2018-06-28T09:27:58.873Z,1.50
2018-06-28T09:30:29.697Z,1.40
2018-06-28T09:33:00.588Z,1.50
2018-06-28T09:35:31.432Z,1.53
2018-06-28T09:38:01.939Z,1.57
2018-06-28T09:40:33.026Z,1.50
2018-06-28T09:43:03.812Z,1.50
2018-06-28T09:45:33.864Z,1.50
2018-06-28T09:48:04.503Z,1.60
2018-06-28T09:50:35.262Z,1.57
2018-06-28T09:53:06.322Z,1.60
2018-06-28T09:55:37.124Z,1.70
2018-06-28T09:58:07.225Z,1.47
2018-06-28T10:00:44.929Z,1.50
2018-06-28T10:03:15.905Z,1.50
2018-06-28T10:05:46.611Z,1.53
2018-06-28T10:08:17.345Z,1.50
2018-06-28T10:10:47.426Z,1.50
2018-06-28T10:13:17.905Z,1.53
2018-06-28T10:15:48.586Z,1.50
2018-06-28T10:18:19.377Z,1.40
2018-06-28T10:20:50.142Z,1.33
2018-06-28T10:23:20.926Z,1.30
2018-06-28T10:25:51.688Z,1.70
2018-06-28T10:28:22.493Z,1.43
2018-06-28T10:30:53.238Z,1.60
2018-06-28T10:33:24.144Z,1.50
2018-06-28T10:35:55.019Z,1.30
2018-06-28T10:38:25.837Z,1.40
2018-06-28T10:40:56.729Z,1.83
2018-06-28T10:43:27.543Z,1.60
2018-06-28T10:45:58.470Z,1.50
2018-06-28T10:48:29.336Z,1.40
2018-06-28T10:51:00.186Z,1.90
2018-06-28T10:53:30.316Z,1.63
2018-06-28T10:56:01.306Z,1.43
2018-06-28T10:58:32.342Z,1.47
2018-06-28T11:01:03.396Z,1.67
2018-06-28T11:03:34.582Z,1.63
2018-06-28T11:06:05.612Z,1.67
2018-06-28T11:08:36.538Z,1.43
2018-06-28T11:11:07.480Z,1.40
2018-06-28T11:13:38.439Z,1.30
2018-06-28T11:16:08.723Z,1.60
2018-06-28T11:18:39.622Z,1.50
2018-06-28T11:21:10.680Z,1.57
2018-06-28T11:23:41.640Z,1.60
2018-06-28T11:26:12.644Z,1.37
2018-06-28T11:28:42.932Z,1.50
2018-06-28T11:31:13.723Z,1.50
2018-06-28T11:33:44.802Z,1.37
2018-06-28T11:36:15.732Z,1.40
2018-06-28T11:38:46.692Z,1.50
2018-06-28T11:41:19.040Z,1.30
2018-06-28T11:43:49.964Z,1.60
2018-06-28T11:46:20.914Z,1.60
2018-06-28T11:48:51.920Z,1.57
2018-06-28T11:51:22.859Z,1.50
2018-06-28T11:53:53.844Z,1.60
2018-06-28T11:56:24.781Z,1.63
2018-06-28T11:58:55.740Z,1.73
2018-06-28T12:01:26.677Z,1.47
2018-06-28T12:03:57.710Z,1.60
2018-06-28T12:06:28.658Z,1.50
2018-06-28T12:08:59.726Z,1.43
2018-06-28T12:11:31.504Z,1.60
2018-06-28T12:14:02.725Z,1.40
2018-06-28T12:16:33.891Z,1.60
2018-06-28T12:19:04.914Z,1.40
2018-06-28T12:21:35.931Z,1.60
2018-06-28T12:24:07.047Z,1.73
2018-06-28T12:26:38.051Z,1.80
2018-06-28T12:29:09.071Z,1.73
2018-06-28T12:31:40.015Z,1.67
2018-06-28T12:34:11.116Z,1.30
2018-06-28T12:36:42.699Z,1.70
2018-06-28T12:39:14.236Z,1.40
2018-06-28T12:41:45.951Z,1.60
2018-06-28T12:44:16.976Z,1.70
2018-06-28T12:48:09.064Z,1.70
2018-06-28T12:50:40.069Z,1.57
2018-06-28T12:53:12.165Z,1.70
2018-06-28T12:56:49.542Z,1.67
2018-06-28T12:59:21.692Z,1.43
2018-06-28T13:01:52.723Z,1.50
2018-06-28T13:04:23.715Z,1.60
2018-06-28T13:06:54.844Z,1.53
2018-06-28T13:09:25.908Z,1.63
2018-06-28T13:11:57.533Z,1.60
2018-06-28T13:14:29.689Z,1.40
2018-06-28T13:16:59.967Z,1.43
2018-06-28T13:19:30.801Z,1.53
2018-06-28T13:22:01.824Z,1.70
2018-06-28T13:24:32.734Z,1.47
2018-06-28T13:27:03.019Z,1.40
2018-06-28T13:29:34.208Z,1.70
2018-06-28T13:32:05.410Z,1.60
2018-06-28T13:34:38.834Z,1.50
2018-06-28T13:37:10.200Z,1.60
2018-06-28T13:39:41.468Z,1.70
2018-06-28T13:42:12.907Z,1.50
2018-06-28T13:44:43.880Z,1.67
2018-06-28T13:47:14.800Z,1.50
2018-06-28T13:49:46.810Z,1.60
2018-06-28T13:52:17.540Z,1.47
2018-06-28T13:54:48.319Z,1.90
2018-06-28T13:57:19.085Z,1.60
2018-06-28T13:59:49.170Z,1.87
2018-06-28T14:02:19.826Z,1.60
2018-06-28T14:04:50.749Z,1.60
2018-06-28T14:07:21.550Z,1.67
2018-06-28T14:09:52.419Z,1.70
2018-06-28T14:12:22.501Z,1.40
2018-06-28T14:14:53.142Z,1.73
2018-06-28T14:17:23.886Z,1.80
2018-06-28T14:19:54.677Z,1.70
2018-06-28T14:22:25.444Z,1.60
2018-06-28T14:24:56.253Z,1.60
2018-06-28T14:27:27.296Z,1.40
2018-06-28T14:29:58.034Z,1.40
2018-06-28T14:32:28.914Z,1.50
2018-06-28T14:34:59.603Z,1.50
2018-06-28T14:37:30.385Z,1.50
2018-06-28T14:40:01.820Z,1.60
2018-06-28T14:42:32.650Z,1.50
2018-06-28T14:45:03.630Z,1.43
2018-06-28T14:47:34.404Z,1.43
2018-06-28T14:50:06.257Z,1.70
2018-06-28T14:52:37.016Z,1.43
2018-06-28T14:55:09.074Z,1.70
2018-06-28T14:57:39.939Z,1.30
2018-06-28T15:00:11.176Z,1.70
2018-06-28T15:02:41.657Z,1.70
2018-06-28T15:05:12.666Z,1.70
2018-06-28T15:07:42.706Z,1.63
2018-06-28T15:10:12.708Z,1.47
2018-06-28T15:12:43.320Z,1.50
2018-06-28T15:15:14.343Z,1.80
2018-06-28T15:17:45.085Z,1.50
2018-06-28T15:20:15.822Z,1.77
2018-06-28T15:22:47.001Z,1.70
2018-06-28T15:25:17.121Z,1.30
2018-06-28T15:27:47.824Z,1.73
2018-06-28T15:30:18.769Z,1.70
2018-06-28T15:32:49.586Z,1.80
2018-06-28T15:35:20.342Z,1.60
2018-06-28T15:37:51.219Z,1.53
2018-06-28T15:40:22.023Z,1.80
2018-06-28T15:42:53.062Z,1.87
2018-06-28T15:45:24.114Z,1.50
2018-06-28T15:47:55.011Z,1.60
2018-06-28T15:50:24.961Z,1.67
2018-06-28T15:52:55.629Z,1.73
2018-06-28T15:55:32.037Z,1.70
2018-06-28T15:58:02.877Z,1.73
2018-06-28T16:00:33.595Z,1.80
2018-06-28T16:03:04.267Z,1.60
2018-06-28T16:05:34.881Z,1.70
2018-06-28T16:17:06.003Z,1.70
2018-06-28T16:19:37.341Z,1.73
2018-06-28T16:22:08.265Z,1.70
2018-06-28T16:24:41.061Z,1.60
2018-06-28T16:27:13.190Z,1.67
2018-06-28T16:29:44.574Z,1.70
2018-06-28T16:32:16.606Z,1.60
2018-06-28T16:34:48.444Z,1.70
2018-06-28T16:37:19.533Z,1.90
2018-06-28T16:39:50.722Z,1.70
2018-06-28T16:42:21.750Z,1.97
2018-06-28T16:44:53.293Z,1.63
2018-06-28T16:47:24.277Z,2.10
2018-06-28T16:49:56.167Z,1.90
2018-06-28T16:52:27.615Z,1.90
2018-06-28T16:54:58.672Z,1.60
2018-06-28T16:57:29.819Z,1.90
2018-06-28T17:00:01.105Z,1.77
2018-06-28T17:02:34.253Z,1.80
2018-06-28T17:05:05.883Z,1.73
2018-06-28T17:07:38.301Z,1.90
2018-06-28T17:10:10.262Z,1.90
2018-06-28T17:12:41.176Z,1.83
2018-06-28T17:15:12.129Z,1.83
2018-06-28T17:17:46.353Z,2.07
2018-06-28T17:20:17.115Z,2.00
2018-06-28T17:22:48.403Z,1.73
2018-06-28T17:25:19.446Z,2.27
2018-06-28T17:27:50.578Z,2.07
2018-06-28T17:30:21.684Z,1.70
2018-06-28T17:32:52.692Z,2.00
2018-06-28T17:35:24.697Z,2.10
2018-06-28T17:37:55.941Z,2.00
2018-06-28T17:40:27.078Z,1.80
2018-06-28T17:42:58.439Z,1.83
2018-06-28T17:45:30.092Z,1.70
2018-06-28T17:48:01.408Z,1.77
2018-06-28T17:50:32.611Z,2.20
2018-06-28T17:53:04.488Z,1.90
2018-06-28T17:55:35.854Z,1.70
2018-06-28T17:58:08.057Z,1.90
2018-06-28T18:00:39.912Z,1.87
2018-06-28T18:03:11.291Z,1.87
2018-06-28T18:05:42.360Z,1.80
2018-06-28T18:08:13.483Z,1.90
2018-06-28T18:10:44.695Z,1.97
2018-06-28T18:13:16.511Z,1.90
2018-06-28T18:15:48.026Z,1.90
2018-06-28T18:18:19.033Z,1.90
2018-06-28T18:20:50.274Z,1.80
2018-06-28T18:23:21.490Z,1.83
2018-06-28T18:25:53.118Z,1.60
2018-06-28T18:28:24.109Z,1.70
2018-06-28T18:30:55.997Z,1.60
2018-06-28T18:33:26.777Z,1.60
2018-06-28T18:35:57.694Z,1.80
2018-06-28T18:38:28.143Z,1.90
2018-06-28T18:40:58.748Z,1.60
2018-06-28T18:43:29.465Z,1.50
2018-06-28T18:46:00.245Z,1.40
2018-06-28T18:48:31.045Z,1.77
2018-06-28T18:51:05.995Z,1.83
2018-06-28T18:53:36.206Z,1.70
2018-06-28T18:56:07.018Z,1.60
2018-06-28T18:58:37.819Z,1.53
2018-06-28T19:01:08.506Z,1.30
2018-06-28T19:03:39.248Z,1.73
2018-06-28T19:06:09.959Z,1.60
2018-06-28T19:08:40.749Z,1.67
2018-06-28T19:11:12.029Z,1.60
2018-06-28T19:13:47.790Z,1.60
2018-06-28T19:16:23.462Z,1.73
2018-06-28T19:18:55.393Z,1.53
2018-06-28T19:21:31.411Z,1.43
2018-06-28T19:24:02.798Z,1.60
2018-06-28T19:26:34.274Z,1.70
2018-06-28T19:29:09.510Z,1.63
2018-06-28T19:31:45.566Z,1.40
2018-06-28T19:34:16.749Z,1.60
2018-06-28T19:36:47.465Z,1.60
2018-06-28T19:39:23.318Z,1.60
2018-06-28T19:44:02.075Z,1.60
2018-06-28T19:46:34.986Z,1.57
2018-06-28T19:49:10.147Z,1.70
2018-06-28T19:51:47.628Z,1.60
2018-06-28T19:54:18.033Z,1.50
2018-06-28T19:56:48.582Z,1.70
2018-06-28T19:59:19.704Z,1.50
2018-06-28T20:01:56.600Z,1.50
2018-06-28T20:04:32.824Z,1.47
2018-06-28T20:07:03.738Z,1.70
2018-06-28T20:09:35.951Z,1.57
2018-06-28T20:12:12.333Z,1.60
2018-06-28T20:14:48.501Z,1.80
2018-06-28T20:17:25.859Z,1.50
2018-06-28T20:20:01.397Z,1.67
2018-06-28T20:22:32.203Z,1.50
2018-06-28T20:25:03.391Z,1.70
2018-06-28T20:27:39.711Z,1.67
2018-06-28T20:30:15.969Z,1.67
2018-06-28T20:32:52.378Z,1.40
2018-06-28T20:35:23.710Z,1.60
2018-06-28T20:37:55.173Z,1.60
2018-06-28T20:40:26.416Z,1.53
2018-06-28T20:42:57.710Z,1.50
2018-06-28T20:45:29.106Z,1.60
2018-06-28T20:48:00.561Z,1.60
2018-06-28T20:50:31.837Z,1.60
2018-06-28T20:53:03.866Z,1.43
2018-06-28T20:55:35.201Z,1.60
2018-06-28T20:58:06.804Z,1.50
2018-06-28T21:00:37.366Z,1.67
2018-06-28T21:03:09.024Z,1.50
2018-06-28T21:05:39.511Z,1.70
2018-06-28T21:08:11.157Z,1.67
2018-06-28T21:10:42.676Z,1.77
2018-06-28T21:13:14.416Z,1.60
2018-06-28T21:15:45.853Z,1.50
2018-06-28T21:18:17.860Z,1.93
2018-06-28T21:20:48.308Z,1.80
2018-06-28T21:23:19.477Z,2.03
2018-06-28T21:25:51.455Z,1.90
2018-06-28T21:28:22.844Z,1.50
2018-06-28T21:30:55.994Z,1.80
2018-06-28T21:33:27.361Z,1.50
2018-06-28T21:35:57.910Z,1.60
2018-06-28T21:38:29.250Z,1.60
2018-06-28T21:41:01.001Z,1.83
2018-06-28T21:43:32.370Z,1.70
2018-06-28T21:46:03.478Z,1.80
2018-06-28T21:48:34.886Z,1.70
2018-06-28T21:51:06.438Z,1.70
2018-06-28T21:53:38.463Z,1.70
2018-06-28T21:56:11.023Z,1.70
2018-06-28T21:58:43.278Z,1.67
2018-06-28T22:01:15.413Z,1.73
2018-06-28T22:03:46.696Z,1.90
2018-06-28T22:06:18.235Z,1.70
2018-06-28T22:08:49.643Z,1.77
2018-06-28T22:11:21.111Z,2.00
2018-06-28T22:13:52.683Z,2.10
2018-06-28T22:16:24.118Z,2.10
2018-06-28T22:18:55.386Z,2.00
2018-06-28T22:21:26.939Z,2.07
2018-06-28T22:23:58.293Z,1.50
2018-06-28T22:26:29.763Z,1.50
2018-06-28T22:29:02.039Z,1.30
2018-06-28T22:31:34.063Z,1.50
2018-06-28T22:34:04.550Z,1.30
2018-06-28T22:36:35.786Z,1.40
2018-06-28T22:39:10.689Z,1.40
2018-06-28T22:41:41.235Z,1.13
2018-06-28T22:44:11.551Z,1.10
2018-06-28T22:46:42.744Z,1.07
2018-06-28T22:49:14.140Z,1.00
2018-06-28T22:51:46.164Z,1.20
2018-06-28T22:54:17.359Z,1.30
2018-06-28T22:56:48.810Z,1.20
2018-06-28T22:59:20.113Z,1.10
2018-06-28T23:01:52.765Z,1.10
2018-06-28T23:04:24.966Z,1.50
2018-06-28T23:06:56.293Z,1.30
2018-06-28T23:09:27.815Z,1.40
2018-06-28T23:11:58.755Z,1.30
2018-06-28T23:14:29.784Z,1.33
2018-06-28T23:17:00.271Z,1.30
2018-06-28T23:19:32.717Z,1.40
2018-06-28T23:22:05.404Z,1.70
2018-06-28T23:24:37.302Z,1.40
2018-06-28T23:27:08.534Z,1.07
2018-06-28T23:29:40.810Z,1.23
2018-06-28T23:32:12.187Z,1.30
2018-06-28T23:34:43.539Z,1.20
2018-06-28T23:37:14.812Z,1.50
2018-06-28T23:39:47.830Z,1.43
2018-06-28T23:42:19.160Z,1.20
2018-06-28T23:44:50.362Z,1.20
2018-06-28T23:47:22.378Z,1.40
2018-06-28T23:49:53.930Z,1.23
2018-06-28T23:52:27.109Z,1.50
2018-06-28T23:54:58.470Z,1.20
2018-06-28T23:57:29.729Z,1.30
